Time;durP1;ratioP1;P1;durP2;ratioP2;P2;SDS_P1;SDS_P2;PMS_P1;PMS_P2;Temp;Humidity;BMP_temperature;BMP_pressure;BME280_temperature;BME280_humidity;BME280_pressure;Samples;Min_cycle;Max_cycle;Signal;HPM_P1;HPM_P2
2023/02/27 00:01:30;;;;;;;2.77;0.83;;;0.80;99.90;;;;;;4958404;28;20027;-75
2023/02/27 00:03:56;;;;;;;2.73;0.80;;;0.80;99.90;;;;;;4959094;28;20086;-74
2023/02/27 00:06:22;;;;;;;1.27;0.67;;;0.70;99.90;;;;;;4976282;28;20081;-73
2023/02/27 00:08:48;;;;;;;1.07;0.70;;;0.70;99.90;;;;;;4975783;28;20093;-74
2023/02/27 00:11:13;;;;;;;2.87;1.07;;;0.70;99.90;;;;;;4975728;28;20030;-75
2023/02/27 00:13:39;;;;;;;1.90;0.70;;;0.70;99.90;;;;;;4957931;28;20121;-74
2023/02/27 00:16:05;;;;;;;1.00;0.80;;;0.70;99.90;;;;;;4958410;28;20464;-74
2023/02/27 00:18:30;;;;;;;2.90;0.70;;;0.70;99.90;;;;;;4975028;28;20467;-75
2023/02/27 00:20:56;;;;;;;2.20;0.80;;;0.70;99.90;;;;;;4958319;28;20085;-73
2023/02/27 00:23:22;;;;;;;4.67;0.80;;;0.70;99.90;;;;;;4958749;28;20041;-74
2023/02/27 00:25:48;;;;;;;2.80;0.80;;;0.70;99.90;;;;;;4959607;28;20208;-73
2023/02/27 00:28:14;;;;;;;3.80;0.70;;;0.70;99.90;;;;;;4959027;28;20488;-73
2023/02/27 00:30:40;;;;;;;1.60;0.70;;;0.60;99.90;;;;;;4971871;28;20033;-73
2023/02/27 00:33:05;;;;;;;1.57;0.90;;;0.60;99.90;;;;;;4976015;28;20045;-73
2023/02/27 00:35:31;;;;;;;1.10;0.73;;;0.60;99.90;;;;;;4977019;28;20066;-73
2023/02/27 00:37:56;;;;;;;1.57;1.20;;;0.60;99.90;;;;;;4975782;28;20072;-73
2023/02/27 00:40:24;;;;;;;0.80;0.70;;;0.60;99.90;;;;;;4978151;28;20356;-73
2023/02/27 00:42:50;;;;;;;3.20;0.80;;;0.50;99.90;;;;;;4994969;28;20033;-73
2023/02/27 00:45:16;;;;;;;1.83;0.53;;;0.60;99.90;;;;;;4994965;28;20467;-73
2023/02/27 00:47:41;;;;;;;1.80;0.70;;;0.60;99.90;;;;;;4976818;28;20031;-73
2023/02/27 00:50:08;;;;;;;3.33;0.90;;;0.60;99.90;;;;;;4977672;28;20037;-74
2023/02/27 00:52:33;;;;;;;2.47;0.67;;;0.60;99.90;;;;;;4993896;28;20033;-74
2023/02/27 00:54:59;;;;;;;1.73;0.87;;;0.60;99.90;;;;;;4994872;28;20059;-74
2023/02/27 00:57:25;;;;;;;2.73;1.00;;;0.50;99.90;;;;;;4994553;28;20027;-76
2023/02/27 00:59:51;;;;;;;1.97;0.73;;;0.50;99.90;;;;;;4976919;28;20471;-74
2023/02/27 01:02:17;;;;;;;2.57;0.90;;;0.50;99.90;;;;;;4994774;28;20234;-74
2023/02/27 01:04:43;;;;;;;1.63;0.87;;;0.50;99.90;;;;;;4993698;28;20030;-73
2023/02/27 01:07:09;;;;;;;1.70;0.93;;;0.40;99.90;;;;;;4994208;28;20113;-73
2023/02/27 01:09:34;;;;;;;1.60;0.80;;;0.40;99.90;;;;;;4976186;28;20078;-74
2023/02/27 01:12:00;;;;;;;4.83;0.83;;;0.40;99.90;;;;;;4977051;28;20080;-73
2023/02/27 01:14:26;;;;;;;2.87;1.03;;;0.40;99.90;;;;;;4994435;28;20023;-75
2023/02/27 01:16:52;;;;;;;1.73;1.10;;;0.40;99.90;;;;;;4976565;28;20108;-73
2023/02/27 01:19:17;;;;;;;1.20;0.67;;;0.40;99.90;;;;;;4977065;28;20387;-73
2023/02/27 01:21:43;;;;;;;3.90;1.47;;;0.40;99.90;;;;;;4975840;28;20073;-73
2023/02/27 01:24:11;;;;;;;3.23;0.93;;;0.40;99.90;;;;;;4976791;28;20026;-74
2023/02/27 01:26:36;;;;;;;1.53;0.90;;;0.40;99.90;;;;;;4966550;28;20026;-74
2023/02/27 01:29:03;;;;;;;1.30;0.80;;;0.40;99.90;;;;;;4993873;28;20030;-73
2023/02/27 01:31:28;;;;;;;1.37;1.00;;;0.40;99.90;;;;;;4993791;28;20045;-74
2023/02/27 01:33:54;;;;;;;2.73;0.80;;;0.40;99.90;;;;;;4976610;28;20043;-73
2023/02/27 01:36:19;;;;;;;1.47;1.00;;;0.40;99.90;;;;;;4994311;28;20530;-74
2023/02/27 01:38:45;;;;;;;3.40;0.80;;;0.30;99.90;;;;;;4993607;28;20026;-73
2023/02/27 01:41:11;;;;;;;0.80;0.80;;;0.30;99.90;;;;;;4977079;28;20061;-73
2023/02/27 01:44:01;;;;;;;1.57;0.90;;;0.30;99.90;;;;;;4976005;28;20440;-74
2023/02/27 01:46:28;;;;;;;3.53;1.10;;;0.30;99.90;;;;;;4976881;28;20030;-74
2023/02/27 01:49:08;;;;;;;1.60;0.70;;;0.30;99.90;;;;;;4993776;28;20109;-74
2023/02/27 01:51:39;;;;;;;2.67;0.93;;;0.40;99.90;;;;;;4993430;28;20384;-74
2023/02/27 01:54:07;;;;;;;1.05;0.80;;;0.30;99.90;;;;;;4976691;28;20498;-74
2023/02/27 01:56:33;;;;;;;1.60;0.80;;;0.30;99.90;;;;;;4993186;28;20050;-73
2023/02/27 01:59:03;;;;;;;2.10;0.70;;;0.40;99.90;;;;;;4994077;28;20506;-74
2023/02/27 02:01:30;;;;;;;1.00;0.60;;;0.30;99.90;;;;;;4993848;28;20026;-74
2023/02/27 02:04:22;;;;;;;1.77;0.80;;;0.30;99.90;;;;;;4993627;28;20023;-74
2023/02/27 02:06:52;;;;;;;1.77;0.77;;;0.30;99.90;;;;;;4975645;28;20101;-74
2023/02/27 02:09:20;;;;;;;2.20;0.83;;;0.30;99.90;;;;;;4993687;28;20042;-73
2023/02/27 02:11:46;;;;;;;0.60;0.60;;;0.20;99.90;;;;;;4975747;28;20121;-73
2023/02/27 02:14:11;;;;;;;2.43;0.70;;;0.20;99.90;;;;;;4976188;28;20586;-73
2023/02/27 02:16:46;;;;;;;0.90;0.73;;;0.30;99.90;;;;;;4993046;28;20479;-74
2023/02/27 02:19:11;;;;;;;2.30;0.77;;;0.20;99.90;;;;;;4975769;28;20084;-73
2023/02/27 02:22:36;;;;;;;3.17;0.93;;;0.20;99.90;;;;;;4992871;28;20368;-74
2023/02/27 02:25:40;;;;;;;1.33;0.73;;;0.20;99.90;;;;;;4895495;29;20036;-74
2023/02/27 02:28:43;;;;;;;2.00;0.73;;;0.20;99.90;;;;;;4895307;29;20071;-74
2023/02/27 02:31:08;;;;;;;;;;;0.20;99.90;;;;;;4981199;28;20034;-74
2023/02/27 02:34:16;;;;;;;3.50;1.00;;;0.20;99.90;;;;;;4972796;28;20373;-75
2023/02/27 02:37:07;;;;;;;3.33;0.97;;;0.20;99.90;;;;;;4956114;28;20062;-75
2023/02/27 02:39:52;;;;;;;1.63;0.80;;;0.10;99.90;;;;;;4973762;28;20415;-75
2023/02/27 02:42:24;;;;;;;1.00;0.90;;;0.10;99.90;;;;;;4956716;28;20479;-75
2023/02/27 02:45:01;;;;;;;3.27;1.10;;;0.10;99.90;;;;;;4955971;28;20030;-75
2023/02/27 02:47:42;;;;;;;2.40;0.70;;;0.10;99.90;;;;;;4956770;28;20060;-75
2023/02/27 02:50:11;;;;;;;3.20;1.10;;;0.10;99.90;;;;;;4956567;28;20484;-74
2023/02/27 02:53:19;;;;;;;1.20;0.70;;;0.10;99.90;;;;;;4955554;28;20118;-74
2023/02/27 02:55:59;;;;;;;2.33;0.90;;;0.10;99.90;;;;;;4959909;28;20498;-74
2023/02/27 02:58:44;;;;;;;2.80;0.80;;;0.10;99.90;;;;;;4972510;28;20034;-74
2023/02/27 03:01:16;;;;;;;1.67;0.80;;;0.10;99.90;;;;;;4972863;28;20129;-74
2023/02/27 03:03:59;;;;;;;2.17;0.90;;;0.10;99.90;;;;;;4971935;28;20058;-74
2023/02/27 03:06:43;;;;;;;2.47;0.70;;;0.10;99.90;;;;;;4972801;28;20039;-74
2023/02/27 03:09:18;;;;;;;2.23;0.90;;;0.10;99.90;;;;;;4972329;28;20043;-74
2023/02/27 03:11:47;;;;;;;0.90;0.70;;;0.10;99.90;;;;;;4971601;28;20034;-74
2023/02/27 03:14:36;;;;;;;2.53;0.97;;;0.00;99.90;;;;;;4973922;28;20217;-74
2023/02/27 03:17:07;;;;;;;1.23;0.90;;;0.00;99.90;;;;;;4972936;28;20023;-75
2023/02/27 03:19:40;;;;;;;2.07;0.73;;;0.00;99.90;;;;;;4972344;28;20031;-75
2023/02/27 03:22:18;;;;;;;0.63;0.60;;;0.00;99.90;;;;;;4972605;28;20122;-74
2023/02/27 03:24:48;;;;;;;2.03;0.80;;;-0.10;99.90;;;;;;4972045;28;20026;-73
2023/02/27 03:27:16;;;;;;;2.80;0.93;;;0.00;99.90;;;;;;4972496;28;20027;-74
2023/02/27 03:30:06;;;;;;;2.77;1.00;;;0.00;99.90;;;;;;4973537;28;20041;-74
2023/02/27 03:32:44;;;;;;;1.40;0.83;;;0.00;99.90;;;;;;4976200;28;20062;-74
2023/02/27 03:35:11;;;;;;;0.87;0.70;;;0.00;99.90;;;;;;4977530;28;20452;-74
2023/02/27 03:37:59;;;;;;;1.90;0.60;;;0.00;99.90;;;;;;4975640;28;20034;-75
2023/02/27 03:40:36;;;;;;;1.93;1.30;;;0.00;99.90;;;;;;4976227;28;20451;-74
2023/02/27 03:43:29;;;;;;;2.70;0.77;;;-0.10;99.90;;;;;;4975786;28;20430;-74
2023/02/27 03:46:27;;;;;;;2.47;0.70;;;-0.10;99.90;;;;;;4975040;28;20065;-74
2023/02/27 03:48:52;;;;;;;1.83;0.80;;;-0.10;99.90;;;;;;4963645;28;20085;-75
2023/02/27 03:51:21;;;;;;;2.73;0.80;;;-0.10;99.90;;;;;;4975570;28;20062;-74
2023/02/27 03:54:09;;;;;;;0.70;0.60;;;-0.20;99.90;;;;;;4974987;28;20113;-75
2023/02/27 03:56:44;;;;;;;4.40;0.90;;;-0.20;99.90;;;;;;4975627;28;20065;-75
2023/02/27 03:59:10;;;;;;;0.90;0.63;;;-0.20;99.90;;;;;;4975579;28;20432;-73
2023/02/27 04:01:36;;;;;;;1.30;0.80;;;-0.20;99.90;;;;;;4975319;28;20023;-75
2023/02/27 04:04:10;;;;;;;2.17;0.90;;;-0.20;99.90;;;;;;4974629;28;20448;-74
2023/02/27 04:10:03;;;;;;;4.67;1.77;;;-0.20;99.90;;;;;;4976465;28;20045;-73
2023/02/27 04:12:52;;;;;;;2.00;0.80;;;-0.20;99.90;;;;;;4975313;28;20023;-74
2023/02/27 04:15:36;;;;;;;2.63;0.90;;;-0.20;99.90;;;;;;4961727;28;20030;-73
2023/02/27 04:18:21;;;;;;;1.60;0.83;;;-0.20;99.90;;;;;;4974812;28;20069;-75
2023/02/27 04:21:08;;;;;;;2.40;0.80;;;-0.30;99.90;;;;;;4974748;28;20030;-74
2023/02/27 04:23:37;;;;;;;1.93;1.10;;;-0.20;99.90;;;;;;4976292;28;20034;-75
2023/02/27 04:26:34;;;;;;;3.23;0.90;;;-0.30;99.90;;;;;;4975985;28;20030;-75
2023/02/27 04:29:07;;;;;;;1.83;1.00;;;-0.30;99.90;;;;;;4974363;28;20591;-74
2023/02/27 04:32:11;;;;;;;3.73;1.00;;;-0.20;99.90;;;;;;4976049;28;20145;-75
2023/02/27 04:34:46;;;;;;;2.17;0.80;;;-0.20;99.90;;;;;;4973950;28;20054;-75
2023/02/27 04:37:20;;;;;;;2.50;0.80;;;-0.20;99.90;;;;;;4975943;28;20039;-75
2023/02/27 04:39:56;;;;;;;2.87;0.90;;;-0.20;99.90;;;;;;4974399;28;20053;-75
2023/02/27 04:42:31;;;;;;;1.40;0.80;;;-0.30;99.90;;;;;;4975469;28;20031;-75
2023/02/27 04:45:03;;;;;;;1.93;0.80;;;-0.30;99.90;;;;;;4974248;28;20031;-75
2023/02/27 04:47:31;;;;;;;;;;;-0.30;99.90;;;;;;4975415;28;20039;-75
2023/02/27 04:50:04;;;;;;;2.33;0.93;;;-0.30;99.90;;;;;;4974936;28;20375;-75
2023/02/27 04:52:37;;;;;;;1.80;1.10;;;-0.30;99.90;;;;;;4974811;28;20030;-74
2023/02/27 04:55:06;;;;;;;2.57;1.20;;;-0.30;99.90;;;;;;4975001;28;20047;-75
2023/02/27 04:57:47;;;;;;;2.53;0.80;;;-0.30;99.90;;;;;;4975939;28;20062;-75
2023/02/27 05:00:15;;;;;;;2.13;0.90;;;-0.30;99.90;;;;;;4958415;28;20091;-74
2023/02/27 05:02:49;;;;;;;3.23;1.00;;;-0.30;99.90;;;;;;4975420;28;20037;-76
2023/02/27 05:05:21;;;;;;;1.30;0.80;;;-0.30;99.90;;;;;;4958202;28;20058;-74
2023/02/27 05:07:50;;;;;;;;;;;-0.30;99.90;;;;;;4957916;28;20027;-74
2023/02/27 05:10:34;;;;;;;1.60;0.80;;;-0.30;99.90;;;;;;4958293;28;19906;-74
2023/02/27 05:13:30;;;;;;;1.83;0.80;;;-0.30;99.90;;;;;;4957662;28;20027;-74
2023/02/27 05:16:28;;;;;;;1.00;0.70;;;-0.30;99.90;;;;;;4930368;28;20094;-74
2023/02/27 05:18:54;;;;;;;2.07;0.90;;;-0.40;99.90;;;;;;4974773;28;20058;-74
2023/02/27 05:21:29;;;;;;;1.13;0.70;;;-0.40;99.90;;;;;;4975425;28;20041;-74
2023/02/27 05:24:00;;;;;;;2.27;0.77;;;-0.40;99.90;;;;;;4957577;28;20069;-74
2023/02/27 05:26:52;;;;;;;1.08;0.77;;;-0.40;99.90;;;;;;4975359;28;20523;-74
2023/02/27 05:29:27;;;;;;;3.20;1.17;;;-0.40;99.90;;;;;;4975130;28;20122;-74
2023/02/27 05:31:59;;;;;;;2.13;0.90;;;-0.40;99.90;;;;;;4974328;28;20424;-75
2023/02/27 05:34:33;;;;;;;1.23;1.00;;;-0.40;99.90;;;;;;4957512;28;20062;-74
2023/02/27 05:37:05;;;;;;;1.23;0.73;;;-0.40;99.90;;;;;;4956880;28;20476;-74
2023/02/27 05:39:35;;;;;;;1.52;0.93;;;-0.40;99.90;;;;;;4975098;28;20543;-74
2023/02/27 05:42:06;;;;;;;3.07;1.10;;;-0.40;99.90;;;;;;4956731;28;20045;-74
2023/02/27 05:44:40;;;;;;;0.90;0.73;;;-0.40;99.90;;;;;;4957763;28;20488;-74
2023/02/27 05:47:14;;;;;;;2.70;0.90;;;-0.40;99.90;;;;;;4957144;28;20120;-74
2023/02/27 05:49:44;;;;;;;5.33;0.90;;;-0.40;99.90;;;;;;4957702;28;20118;-74
2023/02/27 05:52:15;;;;;;;2.13;0.87;;;-0.40;99.90;;;;;;4976128;28;20034;-74
2023/02/27 05:54:48;;;;;;;1.03;0.73;;;-0.40;99.90;;;;;;4994149;28;20038;-75
2023/02/27 05:57:19;;;;;;;1.40;1.00;;;-0.40;99.90;;;;;;4977100;28;20566;-74
2023/02/27 06:00:02;;;;;;;1.92;0.95;;;-0.40;99.90;;;;;;4976227;28;20034;-75
2023/02/27 06:02:28;;;;;;;3.83;0.87;;;-0.40;99.90;;;;;;4976798;28;20419;-74
2023/02/27 06:04:54;;;;;;;1.87;0.83;;;-0.40;99.90;;;;;;4975943;28;20041;-75
2023/02/27 06:07:21;;;;;;;1.53;0.90;;;-0.40;99.90;;;;;;4976550;28;20034;-74
2023/02/27 06:09:47;;;;;;;2.33;0.93;;;-0.40;99.90;;;;;;4976101;28;20030;-76
2023/02/27 06:12:13;;;;;;;1.97;0.73;;;-0.40;99.90;;;;;;4976455;28;20118;-75
2023/02/27 06:14:38;;;;;;;2.47;1.13;;;-0.40;99.90;;;;;;4976530;28;20102;-75
2023/02/27 06:17:04;;;;;;;3.00;0.90;;;-0.40;99.90;;;;;;4975855;28;20034;-74
2023/02/27 06:19:29;;;;;;;2.57;0.90;;;-0.40;99.90;;;;;;4976515;28;20463;-74
2023/02/27 06:21:55;;;;;;;4.30;0.97;;;-0.40;99.90;;;;;;4975519;28;20034;-75
2023/02/27 06:24:20;;;;;;;1.87;0.90;;;-0.40;99.90;;;;;;4993196;28;20065;-74
2023/02/27 06:26:46;;;;;;;3.43;0.90;;;-0.40;99.90;;;;;;4993099;28;20053;-75
2023/02/27 06:29:12;;;;;;;2.43;0.90;;;-0.40;99.90;;;;;;4975824;28;20451;-74
2023/02/27 06:31:38;;;;;;;1.53;0.90;;;-0.30;99.90;;;;;;4976151;28;20038;-74
2023/02/27 06:34:03;;;;;;;1.63;0.97;;;-0.30;99.90;;;;;;4992895;28;20819;-75
2023/02/27 06:36:29;;;;;;;3.20;1.10;;;-0.30;99.90;;;;;;4976152;28;20510;-74
2023/02/27 06:38:54;;;;;;;2.90;0.87;;;-0.30;99.90;;;;;;4965839;28;20125;-75
2023/02/27 06:41:20;;;;;;;2.80;0.90;;;-0.30;99.90;;;;;;4956583;28;20431;-75
2023/02/27 06:43:46;;;;;;;2.00;1.10;;;-0.30;99.90;;;;;;4956478;28;20038;-76
2023/02/27 06:46:11;;;;;;;2.90;1.03;;;-0.30;99.90;;;;;;4973623;28;20023;-75
2023/02/27 06:48:37;;;;;;;2.80;1.07;;;-0.30;99.90;;;;;;4973889;28;20114;-75
2023/02/27 06:51:03;;;;;;;1.40;0.90;;;-0.30;99.90;;;;;;4956188;28;20050;-75
2023/02/27 06:53:28;;;;;;;2.13;1.10;;;-0.20;99.90;;;;;;4956691;28;20400;-75
2023/02/27 06:55:54;;;;;;;2.43;0.90;;;-0.20;99.90;;;;;;4973580;28;20058;-76
2023/02/27 06:58:20;;;;;;;2.50;1.00;;;-0.20;99.90;;;;;;4956752;28;20026;-75
2023/02/27 07:00:46;;;;;;;1.20;0.80;;;-0.20;99.90;;;;;;4956434;28;20037;-75
2023/02/27 07:03:12;;;;;;;1.20;1.00;;;-0.20;99.90;;;;;;4955648;28;20031;-74
2023/02/27 07:05:39;;;;;;;4.73;1.00;;;-0.20;99.90;;;;;;4955603;28;20038;-75
2023/02/27 07:08:04;;;;;;;2.00;0.90;;;-0.20;99.90;;;;;;4955279;28;20142;-75
2023/02/27 07:10:30;;;;;;;3.57;1.10;;;-0.10;99.90;;;;;;4973205;28;20105;-75
2023/02/27 07:12:55;;;;;;;1.60;1.00;;;-0.10;99.90;;;;;;4955393;28;20519;-75
2023/02/27 07:15:21;;;;;;;2.60;0.80;;;-0.10;99.90;;;;;;4973295;28;20400;-74
2023/02/27 07:17:47;;;;;;;1.83;0.90;;;-0.10;99.90;;;;;;4956092;28;20027;-75
2023/02/27 07:20:12;;;;;;;2.40;1.00;;;0.00;99.90;;;;;;4955479;28;20464;-75
2023/02/27 07:22:39;;;;;;;1.33;1.10;;;0.00;99.90;;;;;;4972899;28;20050;-75
2023/02/27 07:25:06;;;;;;;2.03;1.13;;;0.00;99.90;;;;;;4955371;28;20070;-75
2023/02/27 07:27:32;;;;;;;1.97;1.10;;;0.00;99.90;;;;;;4973465;28;20027;-75
2023/02/27 07:29:57;;;;;;;1.03;0.87;;;0.10;99.90;;;;;;4955389;28;20093;-75
2023/02/27 07:32:23;;;;;;;3.43;1.20;;;0.10;99.90;;;;;;4956238;28;20408;-75
2023/02/27 07:34:49;;;;;;;2.17;1.17;;;0.10;99.90;;;;;;4955645;28;20046;-76
2023/02/27 07:37:14;;;;;;;3.37;0.90;;;0.20;99.90;;;;;;4972846;28;20461;-74
2023/02/27 07:39:40;;;;;;;1.97;1.00;;;0.20;99.90;;;;;;4973209;28;20034;-75
2023/02/27 07:42:06;;;;;;;4.17;1.07;;;0.20;99.90;;;;;;4972529;28;20035;-75
2023/02/27 07:44:31;;;;;;;1.17;0.90;;;0.30;99.90;;;;;;4963867;28;20037;-75
2023/02/27 07:46:57;;;;;;;2.67;1.03;;;0.30;99.90;;;;;;4974428;28;20032;-75
2023/02/27 07:49:23;;;;;;;2.30;1.00;;;0.30;99.90;;;;;;4992758;28;20090;-75
2023/02/27 07:51:49;;;;;;;3.93;1.20;;;0.40;99.90;;;;;;4992491;28;20030;-75
2023/02/27 07:54:14;;;;;;;3.30;1.10;;;0.40;99.90;;;;;;4991688;28;20426;-75
2023/02/27 07:56:40;;;;;;;2.63;1.07;;;0.40;99.90;;;;;;4975227;28;20065;-75
2023/02/27 07:59:05;;;;;;;1.33;0.97;;;0.40;99.90;;;;;;4974350;28;20467;-75
2023/02/27 08:01:31;;;;;;;1.63;1.20;;;0.50;99.90;;;;;;4975064;28;20034;-75
2023/02/27 08:03:57;;;;;;;4.57;1.40;;;0.50;99.90;;;;;;4974347;28;20037;-76
2023/02/27 08:06:23;;;;;;;1.90;0.97;;;0.50;99.90;;;;;;4992711;28;20105;-74
2023/02/27 08:08:49;;;;;;;2.67;1.27;;;0.50;99.90;;;;;;4992642;28;20236;-74
2023/02/27 08:11:14;;;;;;;3.60;1.00;;;0.60;99.90;;;;;;4991829;28;20034;-74
2023/02/27 08:13:40;;;;;;;2.17;1.10;;;0.60;99.90;;;;;;4992149;28;20382;-73
2023/02/27 08:16:06;;;;;;;4.33;1.10;;;0.70;99.90;;;;;;4991922;28;20073;-73
2023/02/27 08:18:32;;;;;;;1.97;1.53;;;0.70;99.90;;;;;;4978353;28;20027;-75
2023/02/27 08:20:58;;;;;;;1.33;1.00;;;0.70;99.90;;;;;;4977474;28;20084;-75
2023/02/27 08:23:23;;;;;;;2.40;1.03;;;0.80;99.90;;;;;;4978374;28;20476;-74
2023/02/27 08:25:49;;;;;;;2.97;1.07;;;0.80;99.90;;;;;;4995423;28;20097;-75
2023/02/27 08:28:17;;;;;;;1.63;0.90;;;0.90;99.90;;;;;;4977288;28;20112;-74
2023/02/27 08:30:43;;;;;;;2.30;1.13;;;1.00;99.90;;;;;;4978246;28;20034;-74
2023/02/27 08:33:08;;;;;;;2.77;1.20;;;1.00;99.90;;;;;;4994807;28;20033;-74
2023/02/27 08:35:34;;;;;;;1.60;0.97;;;1.00;99.90;;;;;;4978123;28;20037;-74
2023/02/27 08:37:59;;;;;;;2.77;0.97;;;1.10;99.90;;;;;;4995099;28;20038;-74
2023/02/27 08:40:25;;;;;;;2.33;1.20;;;1.10;99.90;;;;;;4995440;28;20027;-74
2023/02/27 08:42:50;;;;;;;2.90;1.40;;;1.10;99.90;;;;;;4995125;28;20026;-74
2023/02/27 08:45:16;;;;;;;5.37;2.07;;;1.20;99.90;;;;;;4994264;28;20062;-74
2023/02/27 08:47:44;;;;;;;4.43;1.37;;;1.20;99.90;;;;;;4995237;28;20485;-73
2023/02/27 08:50:14;;;;;;;2.30;1.00;;;1.30;99.90;;;;;;4976764;28;20042;-75
2023/02/27 08:52:39;;;;;;;2.40;1.10;;;1.30;99.90;;;;;;4995048;28;20081;-74
2023/02/27 08:55:06;;;;;;;5.13;1.33;;;1.40;99.90;;;;;;4983709;28;20050;-74
2023/02/27 08:57:32;;;;;;;2.73;0.90;;;1.40;99.90;;;;;;4993826;28;20053;-74
2023/02/27 08:59:58;;;;;;;2.07;1.10;;;1.40;99.90;;;;;;4993384;28;20034;-75
2023/02/27 09:02:25;;;;;;;2.93;1.00;;;1.50;99.90;;;;;;4994778;28;20037;-74
2023/02/27 09:04:51;;;;;;;1.03;0.83;;;1.60;99.90;;;;;;4984135;28;20122;-74
2023/02/27 09:07:17;;;;;;;2.07;0.90;;;1.60;99.90;;;;;;4980911;28;20019;-74
2023/02/27 09:09:42;;;;;;;2.43;0.93;;;1.60;99.90;;;;;;4982380;28;20092;-74
2023/02/27 09:12:08;;;;;;;3.47;1.00;;;1.70;99.90;;;;;;4982325;28;20022;-74
2023/02/27 09:14:33;;;;;;;1.27;0.70;;;1.70;99.90;;;;;;4987443;28;20022;-74
2023/02/27 09:16:59;;;;;;;3.60;1.00;;;1.70;99.90;;;;;;4976066;28;20460;-75
2023/02/27 09:19:25;;;;;;;2.07;1.00;;;1.80;99.90;;;;;;4974211;28;20027;-74
2023/02/27 09:21:50;;;;;;;2.87;1.07;;;1.80;99.90;;;;;;4980624;28;20376;-74
2023/02/27 09:24:16;;;;;;;2.17;1.00;;;1.90;99.90;;;;;;4985171;28;20456;-73
2023/02/27 09:26:42;;;;;;;1.47;0.97;;;1.90;99.90;;;;;;4975180;28;20022;-74
2023/02/27 09:29:07;;;;;;;1.43;1.00;;;2.00;99.90;;;;;;4974286;28;20066;-74
2023/02/27 09:31:33;;;;;;;1.13;0.80;;;2.00;99.90;;;;;;4973850;28;20023;-73
2023/02/27 09:34:00;;;;;;;1.27;1.00;;;2.10;99.90;;;;;;4974377;28;20038;-74
2023/02/27 09:36:26;;;;;;;2.40;0.97;;;2.10;99.90;;;;;;4974166;28;20031;-74
2023/02/27 09:38:52;;;;;;;1.33;0.90;;;2.20;99.90;;;;;;4974039;28;20121;-74
2023/02/27 09:41:56;;;;;;;3.77;1.03;;;2.30;99.90;;;;;;4973348;28;20622;-75
2023/02/27 09:44:35;;;;;;;0.87;0.60;;;2.30;99.90;;;;;;4973354;28;20022;-74
2023/02/27 09:47:04;;;;;;;4.63;1.00;;;2.30;99.90;;;;;;4978676;28;20026;-73
2023/02/27 09:49:34;;;;;;;1.27;0.83;;;2.40;99.90;;;;;;4979802;28;20038;-73
2023/02/27 09:52:00;;;;;;;2.90;0.77;;;2.40;99.90;;;;;;4988138;28;20052;-73
2023/02/27 09:54:32;;;;;;;1.33;0.77;;;2.50;99.90;;;;;;4981370;28;20488;-73
2023/02/27 09:57:02;;;;;;;3.37;1.27;;;2.50;99.90;;;;;;4963458;28;20522;-73
2023/02/27 09:59:43;;;;;;;1.67;1.07;;;2.60;99.90;;;;;;4963651;28;20264;-72
2023/02/27 10:02:27;;;;;;;3.83;1.03;;;2.60;99.90;;;;;;4971358;28;20030;-72
2023/02/27 10:05:14;;;;;;;2.40;0.90;;;2.70;99.90;;;;;;4982061;28;20456;-72
2023/02/27 10:08:06;;;;;;;4.30;1.00;;;2.80;99.90;;;;;;4969368;28;20031;-72
2023/02/27 10:10:45;;;;;;;1.70;0.80;;;2.80;99.50;;;;;;4960161;28;20035;-72
2023/02/27 10:13:35;;;;;;;2.33;0.80;;;2.90;98.60;;;;;;4982087;28;20055;-73
2023/02/27 10:16:02;;;;;;;1.07;0.87;;;2.90;98.50;;;;;;4988259;28;20034;-73
2023/02/27 10:18:38;;;;;;;1.53;0.80;;;3.00;98.20;;;;;;4959467;28;20031;-73
2023/02/27 10:21:23;;;;;;;1.90;0.73;;;3.00;98.80;;;;;;4968322;28;20030;-73
2023/02/27 10:23:55;;;;;;;1.37;0.70;;;3.00;98.90;;;;;;4979949;28;20031;-73
2023/02/27 10:26:26;;;;;;;1.83;0.80;;;3.10;98.30;;;;;;4958359;28;20037;-72
2023/02/27 10:28:51;;;;;;;3.77;1.10;;;3.20;98.70;;;;;;4968013;28;20031;-73
2023/02/27 10:31:22;;;;;;;2.70;0.93;;;3.20;97.80;;;;;;4965303;28;20026;-74
2023/02/27 10:33:49;;;;;;;2.37;1.00;;;3.20;97.90;;;;;;4992479;28;20037;-72
2023/02/27 10:36:17;;;;;;;0.97;0.70;;;3.30;98.10;;;;;;4958160;28;20030;-72
2023/02/27 10:38:50;;;;;;;2.70;0.80;;;3.30;96.60;;;;;;4986351;28;20030;-73
2023/02/27 10:41:18;;;;;;;2.10;1.07;;;3.40;96.90;;;;;;4982364;28;20049;-73
2023/02/27 10:43:44;;;;;;;2.97;0.80;;;3.50;96.50;;;;;;4961289;28;20156;-73
2023/02/27 10:46:26;;;;;;;1.70;0.70;;;3.50;95.60;;;;;;4976771;28;20439;-72
2023/02/27 10:48:53;;;;;;;1.70;0.50;;;3.50;96.60;;;;;;4982570;28;20045;-73
2023/02/27 10:51:25;;;;;;;2.57;0.77;;;3.60;96.10;;;;;;4989138;28;20032;-73
2023/02/27 10:54:17;;;;;;;1.90;0.77;;;3.60;95.50;;;;;;4969952;28;20026;-74
2023/02/27 10:57:06;;;;;;;2.13;0.70;;;3.60;92.40;;;;;;4972089;28;20026;-73
2023/02/27 10:59:35;;;;;;;2.03;0.70;;;3.60;93.90;;;;;;4965115;28;20042;-73
2023/02/27 11:02:05;;;;;;;2.23;0.70;;;3.70;94.80;;;;;;4960571;28;20031;-74
2023/02/27 11:04:35;;;;;;;2.67;1.00;;;3.70;93.20;;;;;;4967377;28;20030;-73
2023/02/27 11:07:05;;;;;;;1.70;0.70;;;3.80;93.60;;;;;;4985823;28;20030;-74
2023/02/27 11:09:32;;;;;;;1.50;0.90;;;3.80;92.60;;;;;;4955284;28;20027;-74
2023/02/27 11:12:10;;;;;;;2.10;0.80;;;3.90;93.00;;;;;;4968249;28;20113;-74
2023/02/27 11:14:48;;;;;;;1.63;0.80;;;3.90;94.10;;;;;;4975742;28;20034;-73
2023/02/27 11:17:22;;;;;;;1.87;0.90;;;4.00;93.60;;;;;;4973097;28;20030;-73
2023/02/27 11:19:48;;;;;;;2.20;0.87;;;4.10;95.70;;;;;;4984746;28;20045;-72
2023/02/27 11:22:18;;;;;;;3.00;0.90;;;4.10;93.30;;;;;;4981336;28;20037;-73
2023/02/27 11:24:44;;;;;;;0.97;0.70;;;4.20;92.80;;;;;;4989889;28;20341;-73
2023/02/27 11:27:25;;;;;;;1.40;0.93;;;4.20;92.50;;;;;;4970367;28;20022;-73
2023/02/27 11:30:22;;;;;;;1.27;0.80;;;4.20;91.90;;;;;;4987254;28;20114;-73
2023/02/27 11:32:50;;;;;;;3.53;0.70;;;4.30;91.70;;;;;;4968804;28;20089;-73
2023/02/27 11:35:33;;;;;;;0.73;0.70;;;4.30;92.10;;;;;;4991168;28;20115;-74
2023/02/27 11:38:05;;;;;;;1.40;1.00;;;4.30;91.30;;;;;;4974226;28;20038;-77
2023/02/27 11:40:34;;;;;;;1.42;0.85;;;4.50;91.40;;;;;;4992132;28;20105;-73
2023/02/27 11:43:17;;;;;;;2.73;0.80;;;4.60;91.20;;;;;;4991968;28;20036;-74
2023/02/27 11:45:59;;;;;;;1.07;0.83;;;4.70;90.50;;;;;;4975066;28;20022;-74
2023/02/27 11:48:29;;;;;;;2.70;1.00;;;4.70;91.50;;;;;;4991851;28;20471;-74
2023/02/27 11:51:21;;;;;;;54.90;23.60;;;4.70;88.50;;;;;;4976529;28;20039;-74
2023/02/27 11:53:47;;;;;;;2.70;1.80;;;4.60;90.80;;;;;;4935505;28;20034;-74
2023/02/27 11:56:19;;;;;;;2.07;1.43;;;4.60;87.80;;;;;;4991809;28;20108;-73
2023/02/27 11:58:57;;;;;;;1.87;1.10;;;4.60;87.80;;;;;;4958746;28;20498;-74
2023/02/27 12:01:32;;;;;;;2.90;1.20;;;4.80;91.30;;;;;;4958010;28;20058;-74
2023/02/27 12:04:16;;;;;;;2.37;1.10;;;4.80;90.10;;;;;;4976107;28;20027;-74
2023/02/27 12:07:11;;;;;;;1.80;1.20;;;4.90;89.60;;;;;;4959078;28;20476;-74
2023/02/27 12:10:13;;;;;;;1.30;0.80;;;4.90;89.60;;;;;;4956238;28;20043;-74
2023/02/27 12:13:09;;;;;;;1.33;0.90;;;5.10;90.50;;;;;;4941413;28;20081;-73
2023/02/27 12:16:01;;;;;;;3.10;0.77;;;5.10;87.20;;;;;;4974077;28;20467;-74
2023/02/27 12:18:54;;;;;;;5.85;0.80;;;5.30;86.70;;;;;;4977322;28;20037;-72
2023/02/27 12:21:30;;;;;;;0.80;0.70;;;5.50;85.60;;;;;;4993096;28;20036;-73
2023/02/27 12:24:06;;;;;;;0.83;0.70;;;5.70;82.00;;;;;;4989826;28;20026;-73
2023/02/27 12:26:36;;;;;;;2.10;0.90;;;5.70;80.30;;;;;;4974324;28;20019;-72
2023/02/27 12:29:18;;;;;;;1.60;0.70;;;5.90;81.80;;;;;;4965302;28;20037;-73
2023/02/27 12:31:50;;;;;;;2.30;0.75;;;6.10;79.60;;;;;;4964753;28;20050;-72
2023/02/27 12:34:28;;;;;;;0.87;0.70;;;6.20;75.00;;;;;;4973428;28;20041;-73
2023/02/27 12:36:59;;;;;;;2.27;0.70;;;6.50;76.90;;;;;;4957593;28;20046;-73
2023/02/27 12:39:27;;;;;;;1.70;0.70;;;6.50;69.70;;;;;;4967359;28;20040;-73
2023/02/27 12:42:08;;;;;;;1.13;0.70;;;6.80;73.80;;;;;;4976936;28;20041;-73
2023/02/27 12:45:06;;;;;;;3.37;0.73;;;7.10;72.10;;;;;;4983491;28;20030;-73
2023/02/27 12:47:52;;;;;;;0.63;0.50;;;7.30;69.60;;;;;;4969105;28;20061;-73
2023/02/27 12:50:20;;;;;;;1.30;0.70;;;7.70;69.20;;;;;;4959096;28;20061;-73
2023/02/27 12:52:51;;;;;;;1.10;0.70;;;7.70;66.00;;;;;;4994503;28;20460;-73
2023/02/27 12:55:24;;;;;;;2.67;0.60;;;7.70;63.30;;;;;;4975112;28;20058;-73
2023/02/27 12:58:21;;;;;;;3.30;0.77;;;7.90;63.00;;;;;;4984602;28;20117;-73
2023/02/27 13:01:01;;;;;;;2.27;0.90;;;8.40;65.60;;;;;;4980154;28;20054;-73
2023/02/27 13:03:43;;;;;;;1.65;0.55;;;9.10;63.20;;;;;;4991312;28;20037;-73
2023/02/27 13:06:42;;;;;;;2.75;0.70;;;10.10;60.70;;;;;;4992175;28;20077;-74
2023/02/27 13:09:29;;;;;;;0.93;0.60;;;11.20;58.50;;;;;;4980811;28;20030;-72
2023/02/27 13:12:20;;;;;;;0.68;0.60;;;12.30;53.30;;;;;;4992588;28;20701;-71
2023/02/27 13:15:05;;;;;;;1.08;0.70;;;12.90;52.30;;;;;;4978863;28;20114;-73
2023/02/27 13:17:36;;;;;;;2.85;0.77;;;13.60;51.00;;;;;;4979549;28;20373;-71
2023/02/27 13:20:07;;;;;;;1.92;0.75;;;14.20;49.90;;;;;;4988244;28;20034;-71
2023/02/27 13:23:09;;;;;;;1.50;0.73;;;14.50;49.30;;;;;;4993434;28;20084;-71
2023/02/27 13:25:37;;;;;;;;;;;15.10;47.20;;;;;;4978662;28;20039;-71
2023/02/27 13:28:09;;;;;;;2.42;0.88;;;15.80;46.20;;;;;;4989787;28;19913;-71